createdAt,value
2023-02-04T00:03:40.443Z,4.90
2023-02-04T00:08:46.169Z,5.00
2023-02-04T00:14:00.630Z,5.00
2023-02-04T00:19:49.935Z,5.00
2023-02-04T00:24:59.700Z,5.00
2023-02-04T00:30:03.378Z,4.90
2023-02-04T00:35:07.164Z,5.00
2023-02-04T00:40:17.077Z,5.00
2023-02-04T00:45:27.913Z,5.00
2023-02-04T00:50:54.689Z,4.90
2023-02-04T00:56:02.652Z,4.90
2023-02-04T01:01:07.302Z,4.90
2023-02-04T01:06:23.891Z,4.90
2023-02-04T01:11:32.012Z,4.90
2023-02-04T01:16:35.684Z,4.90
2023-02-04T01:21:40.984Z,5.00
2023-02-04T01:26:48.030Z,5.00
2023-02-04T01:31:53.001Z,5.00
2023-02-04T01:36:56.307Z,5.00
2023-02-04T01:42:03.874Z,5.10
2023-02-04T01:47:08.272Z,5.20
2023-02-04T01:52:12.188Z,5.20
2023-02-04T01:57:18.218Z,5.20
2023-02-04T02:02:41.936Z,5.20
2023-02-04T02:08:03.350Z,5.20
2023-02-04T02:13:18.471Z,5.30
2023-02-04T02:18:25.404Z,5.20
2023-02-04T02:23:48.194Z,5.20
2023-02-04T02:28:53.082Z,5.20
2023-02-04T02:33:56.500Z,5.20
2023-02-04T02:39:03.406Z,5.30
2023-02-04T02:44:16.323Z,5.30
2023-02-04T02:49:20.850Z,5.20
2023-02-04T02:54:34.274Z,5.20
2023-02-04T02:59:37.841Z,5.20
2023-02-04T03:05:00.950Z,5.20
2023-02-04T03:10:07.496Z,5.20
2023-02-04T03:15:14.532Z,5.30
2023-02-04T03:20:18.668Z,5.30
2023-02-04T03:25:24.673Z,5.20
2023-02-04T03:30:29.272Z,5.20
2023-02-04T03:35:33.686Z,5.20
2023-02-04T03:40:45.273Z,5.20
2023-02-04T03:45:50.643Z,5.20
2023-02-04T03:51:08.329Z,5.20
2023-02-04T03:56:19.441Z,5.10
2023-02-04T04:01:26.564Z,5.10
2023-02-04T04:06:41.381Z,5.10
2023-02-04T04:11:47.223Z,5.10
2023-02-04T04:16:50.500Z,5.10
2023-02-04T04:21:53.796Z,5.10
2023-02-04T04:27:34.562Z,5.10
2023-02-04T04:32:38.180Z,5.10
2023-02-04T04:37:41.531Z,5.10
2023-02-04T04:42:47.286Z,5.10
2023-02-04T04:48:26.413Z,5.10
2023-02-04T04:53:30.771Z,5.10
2023-02-04T04:58:35.636Z,5.00
2023-02-04T05:03:40.077Z,4.90
2023-02-04T05:08:43.454Z,4.90
2023-02-04T05:14:02.609Z,4.90
2023-02-04T05:19:10.007Z,4.80
2023-02-04T05:24:23.444Z,4.80
2023-02-04T05:29:28.424Z,4.70
2023-02-04T05:34:31.769Z,4.80
2023-02-04T05:39:41.492Z,4.70
2023-02-04T05:44:53.387Z,4.70
2023-02-04T05:49:56.826Z,4.70
2023-02-04T05:55:18.924Z,4.60
2023-02-04T06:00:24.190Z,4.60
2023-02-04T06:06:03.227Z,4.50
2023-02-04T06:11:08.645Z,4.50
2023-02-04T06:16:17.530Z,4.50
2023-02-04T06:21:29.818Z,4.50
2023-02-04T06:26:34.304Z,4.40
2023-02-04T06:31:42.580Z,4.40
2023-02-04T06:36:46.009Z,4.40
2023-02-04T06:41:51.410Z,4.40
2023-02-04T06:46:58.456Z,4.40
2023-02-04T06:52:01.772Z,4.40
2023-02-04T06:57:07.651Z,4.50
2023-02-04T07:02:13.385Z,4.50
2023-02-04T07:07:16.953Z,4.40
2023-02-04T07:12:21.173Z,4.40
2023-02-04T07:17:25.862Z,4.40
2023-02-04T07:22:29.352Z,4.30
2023-02-04T07:27:32.989Z,4.30
2023-02-04T07:32:37.643Z,4.40
2023-02-04T07:37:40.878Z,4.40
2023-02-04T07:42:44.785Z,4.50
2023-02-04T07:47:49.592Z,4.60
2023-02-04T07:52:52.914Z,4.70
2023-02-04T07:57:56.474Z,4.70
2023-02-04T08:03:01.313Z,4.70
2023-02-04T08:08:04.660Z,4.80
2023-02-04T08:13:08.269Z,4.70
2023-02-04T08:18:13.187Z,4.80
2023-02-04T08:23:16.541Z,5.00
2023-02-04T08:28:19.909Z,5.20
2023-02-04T08:33:24.696Z,5.40
2023-02-04T08:38:29.194Z,5.50
2023-02-04T08:43:51.765Z,5.70
2023-02-04T08:49:07.705Z,5.80
2023-02-04T08:54:11.266Z,5.70
2023-02-04T08:59:24.269Z,5.60
2023-02-04T09:04:36.970Z,5.50
2023-02-04T09:09:55.701Z,5.50
2023-02-04T09:15:01.167Z,5.50
2023-02-04T09:20:09.974Z,5.60
2023-02-04T09:25:29.491Z,5.90
2023-02-04T09:30:34.375Z,6.10
2023-02-04T09:35:49.994Z,6.20
2023-02-04T09:41:01.241Z,6.30
2023-02-04T09:46:05.570Z,6.60
2023-02-04T09:51:14.195Z,6.90
2023-02-04T09:56:19.506Z,7.30
2023-02-04T10:01:29.467Z,7.60
2023-02-04T10:06:37.578Z,7.70
2023-02-04T10:11:42.881Z,7.70
2023-02-04T10:16:52.695Z,8.40
2023-02-04T10:21:57.707Z,8.10
2023-02-04T10:27:11.159Z,7.70
2023-02-04T10:32:30.723Z,7.30
2023-02-04T10:37:38.567Z,7.10
2023-02-04T10:42:52.736Z,6.80
2023-02-04T10:47:59.191Z,6.90
2023-02-04T10:53:21.470Z,7.50
2023-02-04T10:58:32.663Z,7.60
2023-02-04T11:03:36.077Z,7.50
2023-02-04T11:08:42.348Z,7.30
2023-02-04T11:14:04.425Z,7.60
2023-02-04T11:19:16.583Z,8.00
2023-02-04T11:24:26.715Z,8.00
2023-02-04T11:29:35.025Z,8.10
2023-02-04T11:34:51.241Z,8.60
2023-02-04T11:39:59.455Z,8.80
2023-02-04T11:45:29.252Z,8.70
2023-02-04T11:51:04.848Z,8.30
2023-02-04T11:56:18.379Z,8.20
2023-02-04T12:01:35.553Z,8.10
2023-02-04T12:07:00.830Z,7.90
2023-02-04T12:12:08.799Z,7.80
2023-02-04T12:17:18.478Z,8.30
2023-02-04T12:22:31.707Z,8.50
2023-02-04T12:27:37.485Z,8.20
2023-02-04T12:32:40.910Z,7.60
2023-02-04T12:37:44.146Z,7.40
2023-02-04T12:42:49.110Z,7.20
2023-02-04T12:47:52.426Z,7.30
2023-02-04T12:53:00.711Z,7.40
2023-02-04T12:58:06.425Z,7.50
2023-02-04T13:03:09.723Z,7.70
2023-02-04T13:08:13.074Z,8.20
2023-02-04T13:13:17.676Z,8.10
2023-02-04T13:18:20.996Z,8.30
2023-02-04T13:23:26.900Z,8.00
2023-02-04T13:28:34.222Z,7.70
2023-02-04T13:33:38.574Z,7.90
2023-02-04T13:38:41.812Z,7.20
2023-02-04T13:43:48.624Z,7.20
2023-02-04T13:48:52.012Z,7.60
2023-02-04T13:53:55.374Z,7.60
2023-02-04T13:59:00.296Z,7.60
2023-02-04T14:04:03.719Z,7.60
2023-02-04T14:09:07.059Z,7.70
2023-02-04T14:14:11.827Z,7.70
2023-02-04T14:19:15.360Z,7.60
2023-02-04T14:24:18.674Z,7.50
2023-02-04T14:29:23.413Z,7.50
2023-02-04T14:34:26.726Z,7.60
2023-02-04T14:39:29.833Z,7.50
2023-02-04T14:44:34.310Z,7.30
2023-02-04T14:49:38.180Z,7.40
2023-02-04T14:54:41.838Z,7.20
2023-02-04T14:59:47.234Z,7.10
2023-02-04T15:04:50.611Z,7.40
2023-02-04T15:09:53.915Z,7.80
2023-02-04T15:14:58.624Z,8.00
2023-02-04T15:20:03.530Z,7.90
2023-02-04T15:25:07.115Z,7.90
2023-02-04T15:30:12.601Z,7.80
2023-02-04T15:35:17.029Z,7.50
2023-02-04T15:40:24.351Z,7.20
2023-02-04T15:45:31.907Z,7.40
2023-02-04T15:50:35.303Z,7.60
2023-02-04T15:55:38.640Z,7.60
2023-02-04T16:00:45.518Z,7.10
2023-02-04T16:05:48.890Z,6.80
2023-02-04T16:10:54.166Z,6.60
2023-02-04T16:15:59.037Z,6.40
2023-02-04T16:21:02.430Z,6.00
2023-02-04T16:26:06.138Z,5.70
2023-02-04T16:31:11.117Z,5.50
2023-02-04T16:36:14.639Z,5.20
2023-02-04T16:41:18.029Z,5.10
2023-02-04T16:46:22.997Z,5.10
2023-02-04T16:51:29.342Z,5.10
2023-02-04T16:56:35.640Z,5.00
2023-02-04T17:01:40.549Z,5.00
2023-02-04T17:06:43.922Z,4.80
2023-02-04T17:11:53.362Z,4.60
2023-02-04T17:17:00.261Z,4.40
2023-02-04T17:22:03.679Z,4.40
2023-02-04T17:27:08.034Z,4.20
2023-02-04T17:32:19.937Z,4.10
2023-02-04T17:37:23.197Z,4.00
2023-02-04T17:42:26.591Z,4.00
2023-02-04T17:47:31.640Z,4.00
2023-02-04T17:52:35.585Z,4.00
2023-02-04T17:57:39.222Z,3.90
2023-02-04T18:02:49.340Z,3.80
2023-02-04T18:08:06.006Z,3.70
2023-02-04T18:13:22.734Z,3.60
2023-02-04T18:18:28.989Z,3.60
2023-02-04T18:23:34.577Z,3.60
2023-02-04T18:28:40.385Z,3.60
2023-02-04T18:33:45.290Z,3.50
2023-02-04T18:38:48.454Z,3.50
2023-02-04T18:44:02.542Z,3.50
2023-02-04T18:49:21.594Z,3.60
2023-02-04T18:54:35.780Z,3.70
2023-02-04T18:59:42.658Z,3.60
2023-02-04T19:04:48.403Z,3.60
2023-02-04T19:09:53.846Z,3.60
2023-02-04T19:14:59.801Z,3.40
2023-02-04T19:20:18.198Z,3.20
2023-02-04T19:25:31.176Z,3.00
2023-02-04T19:30:50.949Z,2.90
2023-02-04T19:35:55.963Z,2.70
2023-02-04T19:41:00.399Z,2.50
2023-02-04T19:46:18.606Z,2.20
2023-02-04T19:51:30.051Z,1.90
2023-02-04T19:56:37.410Z,1.60
2023-02-04T20:01:41.738Z,1.40
2023-02-04T20:06:47.845Z,1.40
2023-02-04T20:11:59.434Z,1.40
2023-02-04T20:17:16.150Z,1.30
2023-02-04T20:22:50.060Z,1.10
2023-02-04T20:27:55.495Z,1.00
2023-02-04T20:33:31.313Z,0.90
2023-02-04T20:38:36.116Z,0.80
2023-02-04T20:43:55.698Z,0.80
2023-02-04T20:49:29.036Z,0.80
2023-02-04T20:54:39.705Z,0.70
2023-02-04T20:59:54.947Z,0.60
2023-02-04T21:05:04.019Z,0.50
2023-02-04T21:10:09.325Z,0.40
2023-02-04T21:15:20.058Z,0.30
2023-02-04T21:20:23.473Z,0.10
2023-02-04T21:25:34.547Z,0.20
2023-02-04T21:30:38.613Z,0.20
2023-02-04T21:35:43.984Z,0.00
2023-02-04T21:40:48.647Z,-0.10
2023-02-04T21:45:53.032Z,-0.10
2023-02-04T21:51:00.589Z,-0.10
2023-02-04T21:56:14.340Z,-0.10
2023-02-04T22:01:18.809Z,0.10
2023-02-04T22:06:25.323Z,0.10
2023-02-04T22:11:31.324Z,0.40
2023-02-04T22:16:34.604Z,0.50
2023-02-04T22:21:38.350Z,0.50
2023-02-04T22:26:45.007Z,0.50
2023-02-04T22:31:49.643Z,0.60
2023-02-04T22:36:52.946Z,0.60
2023-02-04T22:41:58.727Z,0.60
2023-02-04T22:47:04.134Z,0.70
2023-02-04T22:52:07.667Z,0.80
2023-02-04T22:57:14.333Z,0.90
2023-02-04T23:02:18.768Z,0.90
2023-02-04T23:07:22.247Z,1.10
2023-02-04T23:12:26.911Z,1.10
2023-02-04T23:17:30.135Z,1.20
2023-02-04T23:22:40.914Z,1.10
2023-02-04T23:27:46.682Z,1.10
2023-02-04T23:32:50.033Z,1.00
2023-02-04T23:37:53.387Z,1.00
2023-02-04T23:43:00.930Z,1.10
2023-02-04T23:48:04.548Z,1.10
2023-02-04T23:53:07.896Z,1.10
2023-02-04T23:58:12.658Z,1.10
